createdAt,value
2018-12-06T00:01:05.723Z,98642.22
2018-12-06T00:03:33.799Z,98648.72
2018-12-06T00:06:02.077Z,98642.83
2018-12-06T00:08:30.147Z,98640.14
2018-12-06T00:10:59.890Z,98656.72
2018-12-06T00:13:27.931Z,98663.91
2018-12-06T00:15:55.979Z,98660.72
2018-12-06T00:18:24.064Z,98651.83
2018-12-06T00:20:52.131Z,98649.19
2018-12-06T00:23:20.305Z,98658.23
2018-12-06T00:25:48.383Z,98641.28
2018-12-06T00:28:16.692Z,98637.83
2018-12-06T00:30:44.724Z,98632.42
2018-12-06T00:33:12.792Z,98633.05
2018-12-06T00:35:40.885Z,98615.70
2018-12-06T00:38:08.951Z,98608.93
2018-12-06T00:40:37.009Z,98598.05
2018-12-06T00:43:05.391Z,98604.88
2018-12-06T00:45:33.508Z,98623.30
2018-12-06T00:48:01.559Z,98649.59
2018-12-06T00:50:29.647Z,98642.34
2018-12-06T00:52:57.880Z,98639.40
2018-12-06T00:55:26.136Z,98640.20
2018-12-06T00:57:54.688Z,98639.84
2018-12-06T01:00:22.779Z,98641.09
2018-12-06T01:02:51.055Z,98641.63
2018-12-06T01:05:19.115Z,98636.08
2018-12-06T01:07:47.201Z,98639.35
2018-12-06T01:10:15.247Z,98639.17
2018-12-06T01:12:43.555Z,98640.49
2018-12-06T01:15:11.621Z,98653.84
2018-12-06T01:17:39.768Z,98648.16
2018-12-06T01:20:08.259Z,98646.36
2018-12-06T01:22:36.323Z,98634.86
2018-12-06T01:25:05.572Z,98643.88
2018-12-06T01:27:33.635Z,98646.55
2018-12-06T01:30:01.805Z,98653.84
2018-12-06T01:32:29.867Z,98654.20
2018-12-06T01:34:57.968Z,98655.86
2018-12-06T01:37:26.167Z,98661.89
2018-12-06T01:39:54.311Z,98661.67
2018-12-06T01:42:22.371Z,98652.25
2018-12-06T01:44:50.427Z,98645.71
2018-12-06T01:47:18.519Z,98638.59
2018-12-06T01:49:46.599Z,98629.63
2018-12-06T01:52:14.742Z,98637.51
2018-12-06T01:54:42.839Z,98644.16
2018-12-06T01:57:10.902Z,98646.48
2018-12-06T01:59:39.039Z,98653.38
2018-12-06T02:02:07.135Z,98653.73
2018-12-06T02:04:35.267Z,98644.40
2018-12-06T02:07:03.399Z,98642.47
2018-12-06T02:09:31.578Z,98649.30
2018-12-06T02:11:59.655Z,98634.69
2018-12-06T02:14:27.719Z,98623.78
2018-12-06T02:16:55.791Z,98616.78
2018-12-06T02:19:23.955Z,98614.73
2018-12-06T02:21:52.031Z,98625.52
2018-12-06T02:24:20.103Z,98635.43
2018-12-06T02:26:48.175Z,98636.33
2018-12-06T02:29:16.239Z,98637.00
2018-12-06T02:31:44.322Z,98633.79
2018-12-06T02:34:12.432Z,98624.77
2018-12-06T02:36:40.479Z,98617.09
2018-12-06T02:39:08.704Z,98620.47
2018-12-06T02:41:36.884Z,98624.82
2018-12-06T02:44:05.043Z,98610.17
2018-12-06T02:46:33.315Z,98609.95
2018-12-06T02:49:01.768Z,98609.23
2018-12-06T02:51:30.032Z,98614.03
2018-12-06T02:53:58.067Z,98612.66
2018-12-06T02:56:26.568Z,98608.05
2018-12-06T02:58:54.640Z,98609.38
2018-12-06T03:01:23.004Z,98612.62
2018-12-06T03:03:51.191Z,98607.50
2018-12-06T03:06:19.362Z,98604.25
2018-12-06T03:08:47.540Z,98604.70
2018-12-06T03:11:15.626Z,98605.54
2018-12-06T03:13:43.788Z,98602.62
2018-12-06T03:16:11.863Z,98596.13
2018-12-06T03:18:39.928Z,98600.61
2018-12-06T03:21:08.003Z,98599.84
2018-12-06T03:23:36.076Z,98596.73
2018-12-06T03:26:04.446Z,98593.47
2018-12-06T03:28:32.603Z,98590.63
2018-12-06T03:31:00.668Z,98592.20
2018-12-06T03:33:28.874Z,98588.47
2018-12-06T03:35:57.015Z,98593.75
2018-12-06T03:38:25.222Z,98594.47
2018-12-06T03:40:53.336Z,98591.89
2018-12-06T03:43:21.373Z,98594.44
2018-12-06T03:45:49.428Z,98587.52
2018-12-06T03:48:18.083Z,98592.33
2018-12-06T03:50:46.160Z,98581.31
2018-12-06T03:53:14.243Z,98582.87
2018-12-06T03:55:42.347Z,98582.37
2018-12-06T03:58:10.419Z,98581.55
2018-12-06T04:00:38.485Z,98576.50
2018-12-06T04:03:06.756Z,98583.33
2018-12-06T04:05:34.821Z,98574.89
2018-12-06T04:08:03.148Z,98578.92
2018-12-06T04:10:31.339Z,98571.95
2018-12-06T04:12:59.525Z,98576.72
2018-12-06T04:15:27.599Z,98580.00
2018-12-06T04:17:55.894Z,98576.42
2018-12-06T04:20:24.051Z,98578.14
2018-12-06T04:22:52.100Z,98581.38
2018-12-06T04:25:20.295Z,98592.59
2018-12-06T04:27:48.435Z,98594.95
2018-12-06T04:30:16.496Z,98598.86
2018-12-06T04:32:44.544Z,98602.90
2018-12-06T04:35:12.704Z,98598.22
2018-12-06T04:37:40.768Z,98598.16
2018-12-06T04:40:08.923Z,98594.17
2018-12-06T04:42:37.096Z,98604.56
2018-12-06T04:45:07.727Z,98606.83
2018-12-06T04:47:35.818Z,98606.27
2018-12-06T04:50:04.539Z,98605.46
2018-12-06T04:52:32.609Z,98602.97
2018-12-06T04:55:00.765Z,98606.73
2018-12-06T04:57:28.831Z,98616.47
2018-12-06T04:59:56.905Z,98621.13
2018-12-06T05:02:24.979Z,98619.47
2018-12-06T05:04:53.115Z,98623.31
2018-12-06T05:07:21.389Z,98619.14
2018-12-06T05:09:49.568Z,98622.81
2018-12-06T05:12:17.648Z,98622.77
2018-12-06T05:14:45.741Z,98622.05
2018-12-06T05:17:13.779Z,98618.27
2018-12-06T05:19:41.839Z,98615.71
2018-12-06T05:22:10.307Z,98616.20
2018-12-06T05:24:38.332Z,98620.11
2018-12-06T05:27:06.510Z,98621.59
2018-12-06T05:29:34.624Z,98619.80
2018-12-06T05:32:02.710Z,98623.72
2018-12-06T05:34:30.891Z,98624.88
2018-12-06T05:36:58.997Z,98625.42
2018-12-06T05:39:27.071Z,98627.75
2018-12-06T05:41:55.184Z,98632.31
2018-12-06T05:44:23.389Z,98631.33
2018-12-06T05:46:51.851Z,98630.58
2018-12-06T05:49:19.928Z,98635.53
2018-12-06T05:51:47.987Z,98644.61
2018-12-06T05:54:16.185Z,98640.39
2018-12-06T05:56:44.231Z,98633.69
2018-12-06T05:59:12.304Z,98634.53
2018-12-06T06:01:40.427Z,98623.22
2018-12-06T06:04:08.479Z,98628.37
2018-12-06T06:06:36.672Z,98633.00
2018-12-06T06:09:06.636Z,98652.25
2018-12-06T06:11:34.775Z,98656.70
2018-12-06T06:14:03.097Z,98657.16
2018-12-06T06:16:32.201Z,98659.98
2018-12-06T06:19:00.416Z,98663.50
2018-12-06T06:21:28.585Z,98653.73
2018-12-06T06:23:56.680Z,98664.04
2018-12-06T06:26:24.772Z,98674.26
2018-12-06T06:28:53.001Z,98676.77
2018-12-06T06:31:21.075Z,98677.22
2018-12-06T06:33:49.351Z,98681.45
2018-12-06T06:36:17.487Z,98683.13
2018-12-06T06:38:45.751Z,98684.49
2018-12-06T06:41:14.079Z,98689.34
2018-12-06T06:43:42.132Z,98692.13
2018-12-06T06:46:10.361Z,98694.13
2018-12-06T06:48:38.403Z,98698.49
2018-12-06T06:51:06.489Z,98696.73
2018-12-06T06:53:34.740Z,98697.00
2018-12-06T06:56:02.812Z,98707.89
2018-12-06T06:58:30.887Z,98717.81
2018-12-06T07:00:59.347Z,98716.13
2018-12-06T07:03:27.426Z,98721.61
2018-12-06T07:05:55.559Z,98726.06
2018-12-06T07:08:23.692Z,98730.67
2018-12-06T07:10:51.819Z,98743.81
2018-12-06T07:13:19.983Z,98745.55
2018-12-06T07:15:48.276Z,98736.24
2018-12-06T07:18:16.443Z,98739.92
2018-12-06T07:20:45.017Z,98737.72
2018-12-06T07:23:13.132Z,98743.63
2018-12-06T07:25:46.262Z,98742.23
2018-12-06T07:28:11.672Z,98753.77
2018-12-06T07:30:39.988Z,98753.85
2018-12-06T07:33:08.064Z,98759.47
2018-12-06T07:35:36.210Z,98762.62
2018-12-06T07:38:04.293Z,98770.87
2018-12-06T07:40:32.381Z,98767.06
2018-12-06T07:43:00.423Z,98773.95
2018-12-06T07:45:28.643Z,98782.36
2018-12-06T07:47:56.715Z,98784.24
2018-12-06T07:50:24.779Z,98791.57
2018-12-06T07:52:53.514Z,98800.95
2018-12-06T07:55:21.572Z,98802.20
2018-12-06T07:57:49.619Z,98799.47
2018-12-06T08:00:17.711Z,98793.75
2018-12-06T08:02:45.753Z,98804.33
2018-12-06T08:05:14.031Z,98810.88
2018-12-06T08:07:42.771Z,98820.56
2018-12-06T08:10:12.511Z,98830.20
2018-12-06T08:12:40.672Z,98831.00
2018-12-06T08:15:09.642Z,98836.35
2018-12-06T08:17:37.671Z,98840.01
2018-12-06T08:20:06.539Z,98846.42
2018-12-06T08:22:35.420Z,98845.18
2018-12-06T08:25:04.631Z,98840.41
2018-12-06T08:27:32.815Z,98842.70
2018-12-06T08:30:00.847Z,98845.47
2018-12-06T08:32:29.171Z,98852.30
2018-12-06T08:34:59.041Z,98847.81
2018-12-06T08:37:27.140Z,98844.63
2018-12-06T08:39:55.320Z,98844.52
2018-12-06T08:42:23.447Z,98848.96
2018-12-06T08:44:51.513Z,98851.76
2018-12-06T08:47:19.551Z,98855.27
2018-12-06T08:49:48.035Z,98848.84
2018-12-06T08:52:16.141Z,98848.20
2018-12-06T08:54:44.171Z,98854.44
2018-12-06T08:57:12.603Z,98852.92
2018-12-06T08:59:41.824Z,98846.39
2018-12-06T09:02:09.876Z,98844.30
2018-12-06T09:04:37.988Z,98835.96
2018-12-06T09:07:06.099Z,98833.94
2018-12-06T09:09:34.163Z,98833.08
2018-12-06T09:12:02.203Z,98843.24
2018-12-06T09:14:30.595Z,98853.53
2018-12-06T09:17:00.625Z,98844.03
2018-12-06T09:19:28.792Z,98849.35
2018-12-06T09:21:56.938Z,98850.20
2018-12-06T09:24:25.124Z,98853.13
2018-12-06T09:26:58.755Z,98851.96
2018-12-06T09:29:23.279Z,98851.34
2018-12-06T09:31:51.454Z,98851.15
2018-12-06T09:34:20.006Z,98853.40
2018-12-06T09:36:48.187Z,98859.10
2018-12-06T09:39:18.621Z,98871.73
2018-12-06T09:41:46.801Z,98872.59
2018-12-06T09:44:14.873Z,98880.48
2018-12-06T09:46:42.966Z,98890.80
2018-12-06T09:49:11.276Z,98891.65
2018-12-06T09:51:39.316Z,98890.65
2018-12-06T09:54:07.487Z,98891.09
2018-12-06T09:56:35.604Z,98887.03
2018-12-06T09:59:03.731Z,98888.30
2018-12-06T10:01:31.999Z,98893.10
2018-12-06T10:04:00.103Z,98899.73
2018-12-06T10:06:28.177Z,98909.98
2018-12-06T10:08:56.955Z,98899.70
2018-12-06T10:11:25.793Z,98906.13
2018-12-06T10:13:53.867Z,98895.23
2018-12-06T10:16:22.247Z,98901.48
2018-12-06T10:18:50.567Z,98897.94
2018-12-06T10:21:18.948Z,98904.95
2018-12-06T10:23:47.291Z,98903.80
2018-12-06T10:26:15.508Z,98902.79
2018-12-06T10:28:43.579Z,98910.42
2018-12-06T10:31:11.648Z,98903.59
2018-12-06T10:33:39.991Z,98905.59
2018-12-06T10:36:08.095Z,98902.52
2018-12-06T10:38:36.376Z,98913.47
2018-12-06T10:41:04.815Z,98920.55
2018-12-06T10:43:33.031Z,98915.08
2018-12-06T10:46:01.715Z,98907.44
2018-12-06T10:48:31.270Z,98906.25
2018-12-06T10:51:05.055Z,98906.77
2018-12-06T10:53:34.356Z,98900.93
2018-12-06T10:56:02.407Z,98895.92
2018-12-06T10:58:30.579Z,98883.95
2018-12-06T11:01:00.572Z,98885.34
2018-12-06T11:03:28.643Z,98875.27
2018-12-06T11:05:56.723Z,98879.97
2018-12-06T11:08:24.908Z,98880.21
2018-12-06T11:10:53.003Z,98877.55
2018-12-06T11:13:21.067Z,98875.45
2018-12-06T11:15:49.171Z,98876.83
2018-12-06T11:18:17.249Z,98875.51
2018-12-06T11:20:45.563Z,98864.00
2018-12-06T11:23:13.635Z,98865.22
2018-12-06T11:25:41.762Z,98870.02
2018-12-06T11:28:09.983Z,98879.64
2018-12-06T11:30:38.110Z,98876.30
2018-12-06T11:33:06.469Z,98876.91
2018-12-06T11:35:34.584Z,98874.16
2018-12-06T11:38:02.799Z,98879.97
2018-12-06T11:40:31.460Z,98879.25
2018-12-06T11:43:00.035Z,98880.64
2018-12-06T11:45:28.216Z,98886.70
2018-12-06T11:47:56.494Z,98886.41
2018-12-06T11:50:24.590Z,98880.14
2018-12-06T11:52:52.714Z,98885.66
2018-12-06T11:55:20.800Z,98889.50
2018-12-06T11:57:48.949Z,98888.27
2018-12-06T12:00:17.055Z,98890.95
2018-12-06T12:02:45.148Z,98893.49
2018-12-06T12:05:13.227Z,98886.43
2018-12-06T12:07:41.279Z,98880.08
2018-12-06T12:10:09.462Z,98882.75
2018-12-06T12:12:37.843Z,98894.26
2018-12-06T12:15:07.547Z,98890.69
2018-12-06T12:17:35.935Z,98887.42
2018-12-06T12:20:06.960Z,98877.67
2018-12-06T12:22:35.319Z,98870.50
2018-12-06T12:25:03.701Z,98869.64
2018-12-06T12:27:31.871Z,98865.53
2018-12-06T12:30:00.685Z,98871.78
2018-12-06T12:32:28.767Z,98874.15
2018-12-06T12:34:56.871Z,98874.48
2018-12-06T12:37:24.895Z,98870.95
2018-12-06T12:39:53.647Z,98873.61
2018-12-06T12:42:21.754Z,98880.69
2018-12-06T12:44:49.832Z,98883.14
2018-12-06T12:47:18.004Z,98882.22
2018-12-06T12:49:46.074Z,98883.77
2018-12-06T12:52:14.132Z,98879.87
2018-12-06T12:54:42.298Z,98876.39
2018-12-06T12:57:10.398Z,98869.84
2018-12-06T12:59:38.455Z,98862.17
2018-12-06T13:02:06.527Z,98867.48
2018-12-06T13:04:34.611Z,98872.46
2018-12-06T13:07:08.375Z,98871.78
2018-12-06T13:09:37.351Z,98883.00
2018-12-06T13:12:05.571Z,98879.32
2018-12-06T13:14:34.352Z,98877.97
2018-12-06T13:17:30.491Z,98876.47
2018-12-06T13:19:58.559Z,98876.41
2018-12-06T13:22:26.907Z,98874.57
2018-12-06T13:24:55.127Z,98869.38
2018-12-06T13:27:23.400Z,98868.05
2018-12-06T13:29:51.571Z,98871.15
2018-12-06T13:32:19.638Z,98870.80
2018-12-06T13:34:47.851Z,98874.27
2018-12-06T13:37:16.002Z,98876.61
2018-12-06T13:39:44.164Z,98886.45
2018-12-06T13:42:12.819Z,98881.39
2018-12-06T13:44:42.506Z,98874.70
2018-12-06T13:47:10.779Z,98873.83
2018-12-06T13:49:39.011Z,98872.95
2018-12-06T13:52:07.075Z,98871.60
2018-12-06T13:54:35.145Z,98874.87
2018-12-06T13:57:03.319Z,98879.16
2018-12-06T13:59:32.490Z,98883.08
2018-12-06T14:02:02.864Z,98886.14
2018-12-06T14:04:31.219Z,98883.46
2018-12-06T14:06:59.684Z,98882.92
2018-12-06T14:09:28.094Z,98874.49
2018-12-06T14:11:56.200Z,98870.40
2018-12-06T14:14:24.331Z,98873.34
2018-12-06T14:16:52.712Z,98876.32
2018-12-06T14:19:20.776Z,98876.63
2018-12-06T14:21:48.855Z,98881.86
2018-12-06T14:24:17.027Z,98884.73
2018-12-06T14:26:45.299Z,98883.14
2018-12-06T14:29:13.355Z,98884.21
2018-12-06T14:31:41.415Z,98886.66
2018-12-06T14:34:09.527Z,98894.27
2018-12-06T14:36:37.604Z,98891.28
2018-12-06T14:39:08.128Z,98889.42
2018-12-06T14:41:36.238Z,98888.39
2018-12-06T14:44:04.572Z,98894.88
2018-12-06T14:46:32.724Z,98901.99
2018-12-06T14:49:00.888Z,98903.80
2018-12-06T14:51:28.963Z,98903.24
2018-12-06T14:53:57.108Z,98898.86
2018-12-06T14:56:25.179Z,98902.18
2018-12-06T14:58:53.488Z,98905.02
2018-12-06T15:01:21.549Z,98903.17
2018-12-06T15:03:49.635Z,98907.52
2018-12-06T15:06:18.628Z,98910.91
2018-12-06T15:08:46.713Z,98916.81
2018-12-06T15:11:14.760Z,98920.48
2018-12-06T15:13:42.881Z,98923.41
2018-12-06T15:16:11.140Z,98910.91
2018-12-06T15:18:39.209Z,98916.80
2018-12-06T15:21:07.320Z,98914.69
2018-12-06T15:23:35.379Z,98919.73
2018-12-06T15:26:03.831Z,98917.11
2018-12-06T15:28:32.192Z,98920.05
2018-12-06T15:31:00.264Z,98908.98
2018-12-06T15:33:28.528Z,98914.66
2018-12-06T15:35:56.803Z,98904.41
2018-12-06T15:38:26.175Z,98915.52
2018-12-06T15:40:54.275Z,98908.18
2018-12-06T15:43:22.360Z,98904.33
2018-12-06T15:45:50.452Z,98908.19
2018-12-06T15:48:18.492Z,98905.66
2018-12-06T15:50:46.595Z,98905.42
2018-12-06T15:53:14.668Z,98907.12
2018-12-06T15:55:42.727Z,98904.55
2018-12-06T15:58:11.024Z,98905.52
2018-12-06T16:00:39.983Z,98901.25
2018-12-06T16:03:08.351Z,98909.39
2018-12-06T16:05:36.455Z,98907.01
2018-12-06T16:08:05.420Z,98913.00
2018-12-06T16:10:33.664Z,98909.22
2018-12-06T16:13:01.719Z,98912.73
2018-12-06T16:15:29.868Z,98910.59
2018-12-06T16:17:58.911Z,98908.41
2018-12-06T16:20:27.018Z,98906.16
2018-12-06T16:22:55.496Z,98908.67
2018-12-06T16:25:23.655Z,98911.48
2018-12-06T16:27:51.811Z,98912.33
2018-12-06T16:30:19.951Z,98911.91
2018-12-06T16:32:48.031Z,98917.67
2018-12-06T16:35:17.096Z,98918.70
2018-12-06T16:37:45.181Z,98914.80
2018-12-06T16:40:13.315Z,98917.02
2018-12-06T16:42:41.606Z,98920.56
2018-12-06T16:45:09.869Z,98919.05
2018-12-06T16:47:37.944Z,98923.70
2018-12-06T16:50:08.606Z,98922.65
2018-12-06T16:52:36.652Z,98927.53
2018-12-06T16:55:05.236Z,98919.37
2018-12-06T16:57:33.399Z,98928.11
2018-12-06T17:00:01.581Z,98920.27
2018-12-06T17:02:29.751Z,98933.58
2018-12-06T17:04:57.893Z,98928.05
2018-12-06T17:07:25.967Z,98932.11
2018-12-06T17:09:54.046Z,98930.22
2018-12-06T17:12:22.167Z,98931.34
2018-12-06T17:14:50.240Z,98932.05
2018-12-06T17:17:18.315Z,98925.96
2018-12-06T17:19:46.771Z,98931.55
2018-12-06T17:22:14.831Z,98928.73
2018-12-06T17:24:42.918Z,98927.77
2018-12-06T17:27:11.383Z,98938.60
2018-12-06T17:29:39.588Z,98940.22
2018-12-06T17:32:07.627Z,98937.39
2018-12-06T17:34:35.736Z,98943.22
2018-12-06T17:37:04.091Z,98942.25
2018-12-06T17:39:32.196Z,98935.11
2018-12-06T17:42:00.266Z,98937.21
2018-12-06T17:44:28.429Z,98935.11
2018-12-06T17:46:58.398Z,98932.80
2018-12-06T17:49:26.487Z,98935.11
2018-12-06T17:51:54.543Z,98943.83
2018-12-06T17:54:22.616Z,98941.71
2018-12-06T17:56:50.884Z,98946.18
2018-12-06T17:59:18.945Z,98944.70
2018-12-06T18:01:47.821Z,98939.29
2018-12-06T18:04:15.859Z,98937.86
2018-12-06T18:06:44.243Z,98937.53
2018-12-06T18:09:12.728Z,98939.28
2018-12-06T18:11:40.947Z,98940.31
2018-12-06T18:14:08.983Z,98932.94
2018-12-06T18:16:37.047Z,98930.17
2018-12-06T18:19:05.222Z,98935.95
2018-12-06T18:21:33.296Z,98934.39
2018-12-06T18:24:01.564Z,98931.95
2018-12-06T18:26:29.629Z,98936.86
2018-12-06T18:28:57.708Z,98935.38
2018-12-06T18:31:25.883Z,98933.08
2018-12-06T18:33:54.259Z,98931.16
2018-12-06T18:36:22.598Z,98926.92
2018-12-06T18:38:51.220Z,98923.87
2018-12-06T18:41:19.296Z,98924.30
2018-12-06T18:43:47.364Z,98920.05
2018-12-06T18:46:15.459Z,98917.12
2018-12-06T18:48:43.533Z,98916.47
2018-12-06T18:51:11.682Z,98919.63
2018-12-06T18:53:40.164Z,98922.36
2018-12-06T18:56:08.232Z,98924.41
2018-12-06T18:58:36.284Z,98927.30
2018-12-06T19:01:04.461Z,98916.61
2018-12-06T19:03:32.529Z,98914.30
2018-12-06T19:06:00.723Z,98907.06
2018-12-06T19:08:28.810Z,98907.68
2018-12-06T19:10:56.947Z,98908.44
2018-12-06T19:13:25.039Z,98908.47
2018-12-06T19:15:53.136Z,98911.00
2018-12-06T19:18:21.203Z,98908.45
2018-12-06T19:20:49.255Z,98903.77
2018-12-06T19:23:17.339Z,98901.28
2018-12-06T19:25:45.386Z,98902.69
2018-12-06T19:28:13.446Z,98907.35
2018-12-06T19:30:41.548Z,98903.79
2018-12-06T19:33:09.866Z,98908.55
2018-12-06T19:35:38.103Z,98907.67
2018-12-06T19:38:06.167Z,98905.66
2018-12-06T19:40:34.339Z,98905.50
2018-12-06T19:43:03.800Z,98904.92
2018-12-06T19:45:32.023Z,98899.31
2018-12-06T19:48:00.954Z,98889.55
2018-12-06T19:50:29.007Z,98891.18
2018-12-06T19:52:57.071Z,98895.08
2018-12-06T19:55:25.437Z,98893.52
2018-12-06T19:57:53.511Z,98893.06
2018-12-06T20:00:21.567Z,98890.59
2018-12-06T20:02:49.651Z,98894.53
2018-12-06T20:05:17.979Z,98890.95
2018-12-06T20:07:46.505Z,98894.99
2018-12-06T20:10:14.783Z,98892.97
2018-12-06T20:12:42.911Z,98894.75
2018-12-06T20:15:11.173Z,98893.70
2018-12-06T20:17:39.239Z,98899.77
2018-12-06T20:20:08.311Z,98894.87
2018-12-06T20:22:36.411Z,98892.59
2018-12-06T20:25:05.636Z,98882.68
2018-12-06T20:27:33.826Z,98885.67
2018-12-06T20:30:01.942Z,98876.23
2018-12-06T20:32:30.008Z,98884.41
2018-12-06T20:34:58.046Z,98882.14
2018-12-06T20:37:26.268Z,98881.58
2018-12-06T20:39:54.988Z,98883.20
2018-12-06T20:42:23.067Z,98887.14
2018-12-06T20:44:51.147Z,98889.17
2018-12-06T20:47:19.419Z,98891.77
2018-12-06T20:49:47.488Z,98896.09
2018-12-06T20:52:15.579Z,98899.38
2018-12-06T20:54:43.653Z,98901.11
2018-12-06T20:57:11.714Z,98898.99
2018-12-06T20:59:40.271Z,98890.58
2018-12-06T21:02:08.356Z,98888.41
2018-12-06T21:04:36.402Z,98890.34
2018-12-06T21:07:04.593Z,98888.55
2018-12-06T21:09:32.639Z,98892.73
2018-12-06T21:12:00.716Z,98892.93
2018-12-06T21:14:28.941Z,98892.63
2018-12-06T21:16:57.011Z,98891.35
2018-12-06T21:19:25.062Z,98893.29
2018-12-06T21:21:53.175Z,98892.46
2018-12-06T21:24:21.247Z,98893.78
2018-12-06T21:26:49.312Z,98893.84
2018-12-06T21:29:17.440Z,98890.48
2018-12-06T21:31:45.589Z,98886.28
2018-12-06T21:34:13.611Z,98886.82
2018-12-06T21:36:41.788Z,98877.27
2018-12-06T21:39:09.859Z,98879.14
2018-12-06T21:41:37.927Z,98871.76
2018-12-06T21:44:06.022Z,98874.12
2018-12-06T21:46:34.091Z,98868.55
2018-12-06T21:49:02.163Z,98863.87
2018-12-06T21:51:30.276Z,98861.23
2018-12-06T21:53:58.367Z,98865.84
2018-12-06T21:56:26.530Z,98868.94
2018-12-06T21:58:54.615Z,98870.66
2018-12-06T22:01:22.812Z,98865.21
2018-12-06T22:03:51.043Z,98873.04
2018-12-06T22:06:19.160Z,98876.80
2018-12-06T22:08:47.240Z,98869.14
2018-12-06T22:11:15.315Z,98866.02
2018-12-06T22:13:43.391Z,98864.56
2018-12-06T22:16:11.461Z,98867.56
2018-12-06T22:18:39.532Z,98870.27
2018-12-06T22:21:07.625Z,98865.61
2018-12-06T22:23:35.704Z,98858.64
2018-12-06T22:26:03.931Z,98860.48
2018-12-06T22:28:34.236Z,98865.70
2018-12-06T22:31:02.196Z,98862.19
2018-12-06T22:33:30.283Z,98866.37
2018-12-06T22:35:58.709Z,98860.86
2018-12-06T22:38:33.892Z,98868.00
2018-12-06T22:40:56.881Z,98865.94
2018-12-06T22:43:24.951Z,98863.36
2018-12-06T22:45:55.579Z,98864.38
2018-12-06T22:48:24.428Z,98873.58
2018-12-06T22:50:52.534Z,98859.73
2018-12-06T22:53:20.713Z,98867.92
2018-12-06T22:55:48.883Z,98869.41
2018-12-06T22:58:16.964Z,98859.84
2018-12-06T23:00:50.802Z,98861.28
2018-12-06T23:03:19.022Z,98860.82
2018-12-06T23:05:47.102Z,98853.44
2018-12-06T23:08:15.287Z,98857.30
2018-12-06T23:10:43.561Z,98863.08
2018-12-06T23:13:11.603Z,98862.14
2018-12-06T23:15:39.694Z,98859.59
2018-12-06T23:18:07.863Z,98857.37
2018-12-06T23:20:35.976Z,98857.14
2018-12-06T23:23:04.219Z,98861.11
2018-12-06T23:25:32.412Z,98864.47
2018-12-06T23:28:00.455Z,98860.72
2018-12-06T23:30:28.535Z,98850.70
2018-12-06T23:32:56.603Z,98843.70
2018-12-06T23:35:24.854Z,98843.09
2018-12-06T23:37:52.919Z,98843.55
2018-12-06T23:40:21.027Z,98837.17
2018-12-06T23:42:49.719Z,98834.17
2018-12-06T23:45:17.827Z,98828.55
2018-12-06T23:47:45.859Z,98827.83
2018-12-06T23:50:13.939Z,98826.48
2018-12-06T23:52:42.003Z,98826.72
2018-12-06T23:55:10.069Z,98821.66
2018-12-06T23:57:38.151Z,98829.21
